sensor_id;sensor_type;location;lat;lon;timestamp;P1;durP1;ratioP1;P2;durP2;ratioP2
75818;SDS011;64453;51.944;9.796;2024-01-07T00:00:03;12.93;;;8.70;;
75818;SDS011;64453;51.944;9.796;2024-01-07T00:02:32;13.20;;;9.27;;
75818;SDS011;64453;51.944;9.796;2024-01-07T00:05:00;14.20;;;9.00;;
75818;SDS011;64453;51.944;9.796;2024-01-07T00:07:27;12.30;;;8.50;;
75818;SDS011;64453;51.944;9.796;2024-01-07T00:09:54;12.63;;;7.90;;
75818;SDS011;64453;51.944;9.796;2024-01-07T00:12:20;9.97;;;7.00;;
75818;SDS011;64453;51.944;9.796;2024-01-07T00:14:47;8.47;;;6.60;;
75818;SDS011;64453;51.944;9.796;2024-01-07T00:17:14;8.73;;;6.17;;
75818;SDS011;64453;51.944;9.796;2024-01-07T00:19:41;8.30;;;5.90;;
75818;SDS011;64453;51.944;9.796;2024-01-07T00:22:09;9.87;;;6.30;;
75818;SDS011;64453;51.944;9.796;2024-01-07T00:24:36;8.47;;;6.23;;
75818;SDS011;64453;51.944;9.796;2024-01-07T00:27:03;9.33;;;6.40;;
75818;SDS011;64453;51.944;9.796;2024-01-07T00:29:30;8.70;;;6.17;;
75818;SDS011;64453;51.944;9.796;2024-01-07T00:31:59;7.67;;;6.60;;
75818;SDS011;64453;51.944;9.796;2024-01-07T00:34:26;7.70;;;5.70;;
75818;SDS011;64453;51.944;9.796;2024-01-07T00:36:53;8.30;;;6.23;;
75818;SDS011;64453;51.944;9.796;2024-01-07T00:39:21;7.50;;;6.27;;
75818;SDS011;64453;51.944;9.796;2024-01-07T00:41:48;8.13;;;5.83;;
75818;SDS011;64453;51.944;9.796;2024-01-07T00:44:14;8.07;;;6.37;;
75818;SDS011;64453;51.944;9.796;2024-01-07T00:46:41;7.37;;;6.20;;
75818;SDS011;64453;51.944;9.796;2024-01-07T00:49:08;6.93;;;5.83;;
75818;SDS011;64453;51.944;9.796;2024-01-07T00:51:35;9.73;;;6.97;;
75818;SDS011;64453;51.944;9.796;2024-01-07T00:54:02;9.87;;;6.30;;
75818;SDS011;64453;51.944;9.796;2024-01-07T00:56:30;6.87;;;6.10;;
75818;SDS011;64453;51.944;9.796;2024-01-07T00:58:57;8.43;;;6.07;;
75818;SDS011;64453;51.944;9.796;2024-01-07T01:01:24;6.57;;;5.90;;
75818;SDS011;64453;51.944;9.796;2024-01-07T01:03:51;7.70;;;5.90;;
75818;SDS011;64453;51.944;9.796;2024-01-07T01:06:18;8.00;;;6.37;;
75818;SDS011;64453;51.944;9.796;2024-01-07T01:08:44;7.07;;;5.50;;
75818;SDS011;64453;51.944;9.796;2024-01-07T01:11:11;8.13;;;6.30;;
75818;SDS011;64453;51.944;9.796;2024-01-07T01:13:39;7.30;;;5.63;;
75818;SDS011;64453;51.944;9.796;2024-01-07T01:16:06;7.83;;;5.73;;
75818;SDS011;64453;51.944;9.796;2024-01-07T01:18:33;7.10;;;5.63;;
75818;SDS011;64453;51.944;9.796;2024-01-07T01:20:59;10.53;;;6.23;;
75818;SDS011;64453;51.944;9.796;2024-01-07T01:23:26;10.20;;;6.70;;
75818;SDS011;64453;51.944;9.796;2024-01-07T01:25:53;8.17;;;5.90;;
75818;SDS011;64453;51.944;9.796;2024-01-07T01:28:20;6.30;;;5.00;;
75818;SDS011;64453;51.944;9.796;2024-01-07T01:30:48;8.80;;;5.80;;
75818;SDS011;64453;51.944;9.796;2024-01-07T01:33:14;6.77;;;5.50;;
75818;SDS011;64453;51.944;9.796;2024-01-07T01:35:41;8.33;;;5.77;;
75818;SDS011;64453;51.944;9.796;2024-01-07T01:38:08;7.90;;;5.70;;
75818;SDS011;64453;51.944;9.796;2024-01-07T01:40:36;9.63;;;6.60;;
75818;SDS011;64453;51.944;9.796;2024-01-07T01:43:03;9.33;;;5.67;;
75818;SDS011;64453;51.944;9.796;2024-01-07T01:45:30;8.17;;;5.90;;
75818;SDS011;64453;51.944;9.796;2024-01-07T01:47:58;7.57;;;5.63;;
75818;SDS011;64453;51.944;9.796;2024-01-07T01:50:25;6.83;;;5.20;;
75818;SDS011;64453;51.944;9.796;2024-01-07T01:52:52;8.40;;;5.07;;
75818;SDS011;64453;51.944;9.796;2024-01-07T01:55:21;7.30;;;5.37;;
75818;SDS011;64453;51.944;9.796;2024-01-07T01:57:48;6.33;;;5.40;;
75818;SDS011;64453;51.944;9.796;2024-01-07T02:00:16;6.27;;;4.90;;
75818;SDS011;64453;51.944;9.796;2024-01-07T02:02:43;6.83;;;5.10;;
75818;SDS011;64453;51.944;9.796;2024-01-07T02:05:11;6.13;;;5.17;;
75818;SDS011;64453;51.944;9.796;2024-01-07T02:07:39;7.37;;;4.10;;
75818;SDS011;64453;51.944;9.796;2024-01-07T02:10:06;6.23;;;5.00;;
75818;SDS011;64453;51.944;9.796;2024-01-07T02:12:33;5.23;;;4.60;;
75818;SDS011;64453;51.944;9.796;2024-01-07T02:15:01;5.57;;;4.70;;
75818;SDS011;64453;51.944;9.796;2024-01-07T02:17:28;7.33;;;5.13;;
75818;SDS011;64453;51.944;9.796;2024-01-07T02:19:55;5.50;;;4.43;;
75818;SDS011;64453;51.944;9.796;2024-01-07T02:22:23;7.50;;;5.50;;
75818;SDS011;64453;51.944;9.796;2024-01-07T02:24:51;6.77;;;5.07;;
75818;SDS011;64453;51.944;9.796;2024-01-07T02:27:18;6.90;;;4.97;;
75818;SDS011;64453;51.944;9.796;2024-01-07T02:29:45;5.00;;;4.50;;
75818;SDS011;64453;51.944;9.796;2024-01-07T02:32:12;5.53;;;4.50;;
75818;SDS011;64453;51.944;9.796;2024-01-07T02:34:38;6.10;;;4.73;;
75818;SDS011;64453;51.944;9.796;2024-01-07T02:37:05;5.37;;;4.67;;
75818;SDS011;64453;51.944;9.796;2024-01-07T02:39:32;5.80;;;5.20;;
75818;SDS011;64453;51.944;9.796;2024-01-07T02:42:00;4.47;;;4.07;;
75818;SDS011;64453;51.944;9.796;2024-01-07T02:44:27;6.20;;;4.90;;
75818;SDS011;64453;51.944;9.796;2024-01-07T02:46:54;4.47;;;3.87;;
75818;SDS011;64453;51.944;9.796;2024-01-07T02:49:21;5.50;;;4.27;;
75818;SDS011;64453;51.944;9.796;2024-01-07T02:51:48;6.47;;;4.47;;
75818;SDS011;64453;51.944;9.796;2024-01-07T02:54:15;7.27;;;4.80;;
75818;SDS011;64453;51.944;9.796;2024-01-07T02:56:42;5.93;;;4.40;;
75818;SDS011;64453;51.944;9.796;2024-01-07T02:59:10;7.43;;;4.80;;
75818;SDS011;64453;51.944;9.796;2024-01-07T03:01:37;5.90;;;4.80;;
75818;SDS011;64453;51.944;9.796;2024-01-07T03:04:06;5.10;;;4.60;;
75818;SDS011;64453;51.944;9.796;2024-01-07T03:06:33;4.83;;;4.20;;
75818;SDS011;64453;51.944;9.796;2024-01-07T03:09:00;6.43;;;5.03;;
75818;SDS011;64453;51.944;9.796;2024-01-07T03:11:28;5.00;;;4.17;;
75818;SDS011;64453;51.944;9.796;2024-01-07T03:13:54;4.13;;;3.80;;
75818;SDS011;64453;51.944;9.796;2024-01-07T03:16:23;7.97;;;5.37;;
75818;SDS011;64453;51.944;9.796;2024-01-07T03:18:52;5.37;;;4.87;;
75818;SDS011;64453;51.944;9.796;2024-01-07T03:21:18;6.23;;;5.43;;
75818;SDS011;64453;51.944;9.796;2024-01-07T03:23:46;5.10;;;4.60;;
75818;SDS011;64453;51.944;9.796;2024-01-07T03:26:13;5.60;;;4.77;;
75818;SDS011;64453;51.944;9.796;2024-01-07T03:28:41;5.97;;;4.70;;
75818;SDS011;64453;51.944;9.796;2024-01-07T03:31:09;6.97;;;4.87;;
75818;SDS011;64453;51.944;9.796;2024-01-07T03:33:39;4.80;;;4.40;;
75818;SDS011;64453;51.944;9.796;2024-01-07T03:36:07;6.73;;;4.47;;
75818;SDS011;64453;51.944;9.796;2024-01-07T03:38:35;5.00;;;4.50;;
75818;SDS011;64453;51.944;9.796;2024-01-07T03:41:03;6.60;;;5.30;;
75818;SDS011;64453;51.944;9.796;2024-01-07T03:43:30;4.10;;;3.70;;
75818;SDS011;64453;51.944;9.796;2024-01-07T03:45:57;5.80;;;5.20;;
75818;SDS011;64453;51.944;9.796;2024-01-07T03:48:24;5.73;;;4.50;;
75818;SDS011;64453;51.944;9.796;2024-01-07T03:50:53;5.90;;;4.23;;
75818;SDS011;64453;51.944;9.796;2024-01-07T03:53:19;5.90;;;4.23;;
75818;SDS011;64453;51.944;9.796;2024-01-07T03:55:46;7.63;;;4.47;;
75818;SDS011;64453;51.944;9.796;2024-01-07T03:58:13;6.00;;;4.40;;
75818;SDS011;64453;51.944;9.796;2024-01-07T04:00:40;4.17;;;3.87;;
75818;SDS011;64453;51.944;9.796;2024-01-07T04:03:07;5.07;;;4.67;;
75818;SDS011;64453;51.944;9.796;2024-01-07T04:05:34;4.97;;;3.70;;
75818;SDS011;64453;51.944;9.796;2024-01-07T04:08:03;4.73;;;3.50;;
75818;SDS011;64453;51.944;9.796;2024-01-07T04:10:30;3.87;;;3.40;;
75818;SDS011;64453;51.944;9.796;2024-01-07T04:12:57;3.57;;;3.23;;
75818;SDS011;64453;51.944;9.796;2024-01-07T04:15:24;4.10;;;3.60;;
75818;SDS011;64453;51.944;9.796;2024-01-07T04:17:51;4.50;;;3.57;;
75818;SDS011;64453;51.944;9.796;2024-01-07T04:20:17;3.80;;;3.27;;
75818;SDS011;64453;51.944;9.796;2024-01-07T04:22:44;3.50;;;3.20;;
75818;SDS011;64453;51.944;9.796;2024-01-07T04:25:13;3.83;;;3.03;;
75818;SDS011;64453;51.944;9.796;2024-01-07T04:27:39;3.73;;;3.43;;
75818;SDS011;64453;51.944;9.796;2024-01-07T04:30:06;3.50;;;3.10;;
75818;SDS011;64453;51.944;9.796;2024-01-07T04:32:34;4.07;;;2.93;;
75818;SDS011;64453;51.944;9.796;2024-01-07T04:35:00;2.87;;;2.67;;
75818;SDS011;64453;51.944;9.796;2024-01-07T04:37:27;3.90;;;3.07;;
75818;SDS011;64453;51.944;9.796;2024-01-07T04:39:54;3.47;;;2.80;;
75818;SDS011;64453;51.944;9.796;2024-01-07T04:42:22;3.93;;;3.10;;
75818;SDS011;64453;51.944;9.796;2024-01-07T04:44:49;3.80;;;3.40;;
75818;SDS011;64453;51.944;9.796;2024-01-07T04:47:23;6.40;;;3.03;;
75818;SDS011;64453;51.944;9.796;2024-01-07T04:49:52;4.10;;;3.10;;
75818;SDS011;64453;51.944;9.796;2024-01-07T04:52:19;3.07;;;2.80;;
75818;SDS011;64453;51.944;9.796;2024-01-07T04:54:47;4.40;;;3.10;;
75818;SDS011;64453;51.944;9.796;2024-01-07T04:57:14;2.70;;;2.50;;
75818;SDS011;64453;51.944;9.796;2024-01-07T04:59:42;3.00;;;2.80;;
75818;SDS011;64453;51.944;9.796;2024-01-07T05:02:08;4.93;;;3.50;;
75818;SDS011;64453;51.944;9.796;2024-01-07T05:04:35;4.60;;;3.53;;
75818;SDS011;64453;51.944;9.796;2024-01-07T05:07:02;3.43;;;3.20;;
75818;SDS011;64453;51.944;9.796;2024-01-07T05:09:29;3.70;;;3.20;;
75818;SDS011;64453;51.944;9.796;2024-01-07T05:11:56;3.70;;;3.13;;
75818;SDS011;64453;51.944;9.796;2024-01-07T05:14:23;2.73;;;2.40;;
75818;SDS011;64453;51.944;9.796;2024-01-07T05:16:52;3.90;;;3.20;;
75818;SDS011;64453;51.944;9.796;2024-01-07T05:19:19;5.10;;;3.87;;
75818;SDS011;64453;51.944;9.796;2024-01-07T05:21:46;4.80;;;3.20;;
75818;SDS011;64453;51.944;9.796;2024-01-07T05:24:13;3.40;;;2.90;;
75818;SDS011;64453;51.944;9.796;2024-01-07T05:26:41;3.47;;;3.03;;
75818;SDS011;64453;51.944;9.796;2024-01-07T05:29:09;3.67;;;3.30;;
75818;SDS011;64453;51.944;9.796;2024-01-07T05:31:37;3.67;;;3.37;;
75818;SDS011;64453;51.944;9.796;2024-01-07T05:34:05;4.23;;;3.83;;
75818;SDS011;64453;51.944;9.796;2024-01-07T05:36:32;3.13;;;2.77;;
75818;SDS011;64453;51.944;9.796;2024-01-07T05:38:59;3.27;;;2.93;;
75818;SDS011;64453;51.944;9.796;2024-01-07T05:41:26;2.80;;;2.60;;
75818;SDS011;64453;51.944;9.796;2024-01-07T05:43:53;2.80;;;2.60;;
75818;SDS011;64453;51.944;9.796;2024-01-07T05:46:19;3.83;;;2.80;;
75818;SDS011;64453;51.944;9.796;2024-01-07T05:48:48;2.93;;;2.73;;
75818;SDS011;64453;51.944;9.796;2024-01-07T05:51:16;3.00;;;2.77;;
75818;SDS011;64453;51.944;9.796;2024-01-07T05:53:43;5.57;;;2.77;;
75818;SDS011;64453;51.944;9.796;2024-01-07T05:56:11;2.27;;;2.00;;
75818;SDS011;64453;51.944;9.796;2024-01-07T05:58:38;3.73;;;2.20;;
75818;SDS011;64453;51.944;9.796;2024-01-07T06:01:06;2.93;;;2.63;;
75818;SDS011;64453;51.944;9.796;2024-01-07T06:03:34;2.00;;;1.90;;
75818;SDS011;64453;51.944;9.796;2024-01-07T06:06:01;2.50;;;2.10;;
75818;SDS011;64453;51.944;9.796;2024-01-07T06:08:29;1.87;;;1.77;;
75818;SDS011;64453;51.944;9.796;2024-01-07T06:10:56;1.63;;;1.53;;
75818;SDS011;64453;51.944;9.796;2024-01-07T06:13:23;1.60;;;1.50;;
75818;SDS011;64453;51.944;9.796;2024-01-07T06:15:50;1.30;;;1.20;;
75818;SDS011;64453;51.944;9.796;2024-01-07T06:18:18;1.97;;;1.87;;
75818;SDS011;64453;51.944;9.796;2024-01-07T06:20:45;2.20;;;1.30;;
75818;SDS011;64453;51.944;9.796;2024-01-07T06:23:12;2.40;;;1.30;;
75818;SDS011;64453;51.944;9.796;2024-01-07T06:25:40;1.60;;;1.40;;
75818;SDS011;64453;51.944;9.796;2024-01-07T06:28:07;1.73;;;1.53;;
75818;SDS011;64453;51.944;9.796;2024-01-07T06:30:35;1.57;;;1.47;;
75818;SDS011;64453;51.944;9.796;2024-01-07T06:33:02;1.50;;;1.27;;
75818;SDS011;64453;51.944;9.796;2024-01-07T06:35:30;1.87;;;1.30;;
75818;SDS011;64453;51.944;9.796;2024-01-07T06:37:57;1.40;;;1.30;;
75818;SDS011;64453;51.944;9.796;2024-01-07T06:40:24;1.23;;;1.20;;
75818;SDS011;64453;51.944;9.796;2024-01-07T06:42:52;1.77;;;1.20;;
75818;SDS011;64453;51.944;9.796;2024-01-07T06:45:19;1.77;;;1.67;;
75818;SDS011;64453;51.944;9.796;2024-01-07T06:47:46;2.33;;;1.73;;
75818;SDS011;64453;51.944;9.796;2024-01-07T06:50:13;1.03;;;1.03;;
75818;SDS011;64453;51.944;9.796;2024-01-07T06:52:39;1.13;;;1.13;;
75818;SDS011;64453;51.944;9.796;2024-01-07T06:55:07;1.70;;;1.60;;
75818;SDS011;64453;51.944;9.796;2024-01-07T06:57:34;1.37;;;1.20;;
75818;SDS011;64453;51.944;9.796;2024-01-07T07:00:02;1.53;;;1.43;;
75818;SDS011;64453;51.944;9.796;2024-01-07T07:02:32;1.87;;;1.77;;
75818;SDS011;64453;51.944;9.796;2024-01-07T07:04:59;1.73;;;1.37;;
75818;SDS011;64453;51.944;9.796;2024-01-07T07:07:25;1.53;;;1.43;;
75818;SDS011;64453;51.944;9.796;2024-01-07T07:09:53;1.00;;;0.90;;
75818;SDS011;64453;51.944;9.796;2024-01-07T07:12:19;1.00;;;1.00;;
75818;SDS011;64453;51.944;9.796;2024-01-07T07:14:46;1.37;;;1.20;;
75818;SDS011;64453;51.944;9.796;2024-01-07T07:17:14;0.87;;;0.87;;
75818;SDS011;64453;51.944;9.796;2024-01-07T07:19:41;1.40;;;1.17;;
75818;SDS011;64453;51.944;9.796;2024-01-07T07:22:08;1.30;;;1.20;;
75818;SDS011;64453;51.944;9.796;2024-01-07T07:24:38;1.53;;;1.43;;
75818;SDS011;64453;51.944;9.796;2024-01-07T07:27:06;1.07;;;1.07;;
75818;SDS011;64453;51.944;9.796;2024-01-07T07:29:33;2.03;;;1.17;;
75818;SDS011;64453;51.944;9.796;2024-01-07T07:32:00;1.30;;;1.13;;
75818;SDS011;64453;51.944;9.796;2024-01-07T07:34:28;1.23;;;1.20;;
75818;SDS011;64453;51.944;9.796;2024-01-07T07:36:55;1.40;;;1.30;;
75818;SDS011;64453;51.944;9.796;2024-01-07T07:39:22;1.50;;;1.40;;
75818;SDS011;64453;51.944;9.796;2024-01-07T07:41:49;1.73;;;1.60;;
75818;SDS011;64453;51.944;9.796;2024-01-07T07:44:16;2.00;;;1.90;;
75818;SDS011;64453;51.944;9.796;2024-01-07T07:46:43;2.00;;;1.33;;
75818;SDS011;64453;51.944;9.796;2024-01-07T07:49:09;1.93;;;1.83;;
75818;SDS011;64453;51.944;9.796;2024-01-07T07:51:38;6.70;;;2.20;;
75818;SDS011;64453;51.944;9.796;2024-01-07T07:54:06;2.30;;;1.50;;
75818;SDS011;64453;51.944;9.796;2024-01-07T07:56:33;1.50;;;1.23;;
75818;SDS011;64453;51.944;9.796;2024-01-07T07:59:02;1.77;;;1.50;;
75818;SDS011;64453;51.944;9.796;2024-01-07T08:01:28;1.97;;;1.70;;
75818;SDS011;64453;51.944;9.796;2024-01-07T08:03:55;2.40;;;2.03;;
75818;SDS011;64453;51.944;9.796;2024-01-07T08:06:22;2.27;;;1.70;;
75818;SDS011;64453;51.944;9.796;2024-01-07T08:08:50;2.17;;;2.03;;
75818;SDS011;64453;51.944;9.796;2024-01-07T08:11:17;1.50;;;1.40;;
75818;SDS011;64453;51.944;9.796;2024-01-07T08:13:44;1.70;;;1.60;;
75818;SDS011;64453;51.944;9.796;2024-01-07T08:16:11;1.90;;;1.77;;
75818;SDS011;64453;51.944;9.796;2024-01-07T08:18:37;1.90;;;1.80;;
75818;SDS011;64453;51.944;9.796;2024-01-07T08:21:05;1.67;;;1.57;;
75818;SDS011;64453;51.944;9.796;2024-01-07T08:23:32;2.67;;;1.40;;
75818;SDS011;64453;51.944;9.796;2024-01-07T08:26:00;1.50;;;1.40;;
75818;SDS011;64453;51.944;9.796;2024-01-07T08:28:28;1.40;;;1.30;;
75818;SDS011;64453;51.944;9.796;2024-01-07T08:30:55;2.00;;;1.50;;
75818;SDS011;64453;51.944;9.796;2024-01-07T08:33:21;2.40;;;1.93;;
75818;SDS011;64453;51.944;9.796;2024-01-07T08:35:48;1.40;;;1.30;;
75818;SDS011;64453;51.944;9.796;2024-01-07T08:38:15;1.50;;;1.40;;
75818;SDS011;64453;51.944;9.796;2024-01-07T08:40:42;1.57;;;1.33;;
75818;SDS011;64453;51.944;9.796;2024-01-07T08:43:11;1.67;;;1.57;;
75818;SDS011;64453;51.944;9.796;2024-01-07T08:45:38;1.90;;;1.80;;
75818;SDS011;64453;51.944;9.796;2024-01-07T08:48:05;1.93;;;1.83;;
75818;SDS011;64453;51.944;9.796;2024-01-07T08:50:33;3.27;;;2.97;;
75818;SDS011;64453;51.944;9.796;2024-01-07T08:53:00;2.47;;;1.90;;
75818;SDS011;64453;51.944;9.796;2024-01-07T08:55:27;1.63;;;1.40;;
75818;SDS011;64453;51.944;9.796;2024-01-07T08:57:53;1.50;;;1.50;;
75818;SDS011;64453;51.944;9.796;2024-01-07T09:00:22;1.87;;;1.50;;
75818;SDS011;64453;51.944;9.796;2024-01-07T09:02:51;1.97;;;1.87;;
75818;SDS011;64453;51.944;9.796;2024-01-07T09:05:19;3.90;;;1.40;;
75818;SDS011;64453;51.944;9.796;2024-01-07T09:07:46;3.20;;;1.80;;
75818;SDS011;64453;51.944;9.796;2024-01-07T09:10:13;1.77;;;1.67;;
75818;SDS011;64453;51.944;9.796;2024-01-07T09:12:40;1.70;;;1.60;;
75818;SDS011;64453;51.944;9.796;2024-01-07T09:15:07;1.40;;;1.37;;
75818;SDS011;64453;51.944;9.796;2024-01-07T09:17:36;1.50;;;1.43;;
75818;SDS011;64453;51.944;9.796;2024-01-07T09:20:04;2.17;;;1.97;;
75818;SDS011;64453;51.944;9.796;2024-01-07T09:22:33;1.43;;;1.23;;
75818;SDS011;64453;51.944;9.796;2024-01-07T09:25:01;2.30;;;1.60;;
75818;SDS011;64453;51.944;9.796;2024-01-07T09:27:28;1.60;;;1.50;;
75818;SDS011;64453;51.944;9.796;2024-01-07T09:29:56;1.37;;;1.27;;
75818;SDS011;64453;51.944;9.796;2024-01-07T09:32:23;1.80;;;1.70;;
75818;SDS011;64453;51.944;9.796;2024-01-07T09:34:51;1.67;;;1.47;;
75818;SDS011;64453;51.944;9.796;2024-01-07T09:37:18;1.57;;;1.47;;
75818;SDS011;64453;51.944;9.796;2024-01-07T09:39:45;1.50;;;1.40;;
75818;SDS011;64453;51.944;9.796;2024-01-07T09:42:13;1.60;;;1.47;;
75818;SDS011;64453;51.944;9.796;2024-01-07T09:44:41;2.07;;;1.90;;
75818;SDS011;64453;51.944;9.796;2024-01-07T09:47:10;1.03;;;1.03;;
75818;SDS011;64453;51.944;9.796;2024-01-07T09:49:38;5.90;;;3.30;;
75818;SDS011;64453;51.944;9.796;2024-01-07T09:52:08;5.57;;;3.90;;
75818;SDS011;64453;51.944;9.796;2024-01-07T09:54:37;2.03;;;1.93;;
75818;SDS011;64453;51.944;9.796;2024-01-07T09:57:05;2.00;;;1.70;;
75818;SDS011;64453;51.944;9.796;2024-01-07T09:59:34;12.67;;;8.03;;
75818;SDS011;64453;51.944;9.796;2024-01-07T10:02:01;6.40;;;2.90;;
75818;SDS011;64453;51.944;9.796;2024-01-07T10:04:29;1.93;;;1.80;;
75818;SDS011;64453;51.944;9.796;2024-01-07T10:06:56;1.93;;;1.77;;
75818;SDS011;64453;51.944;9.796;2024-01-07T10:09:25;1.53;;;1.43;;
75818;SDS011;64453;51.944;9.796;2024-01-07T10:11:55;2.47;;;1.80;;
75818;SDS011;64453;51.944;9.796;2024-01-07T10:14:22;2.30;;;1.90;;
75818;SDS011;64453;51.944;9.796;2024-01-07T10:16:50;4.07;;;1.90;;
75818;SDS011;64453;51.944;9.796;2024-01-07T10:19:20;1.63;;;1.53;;
75818;SDS011;64453;51.944;9.796;2024-01-07T10:21:56;2.50;;;1.90;;
75818;SDS011;64453;51.944;9.796;2024-01-07T10:24:28;2.93;;;1.50;;
75818;SDS011;64453;51.944;9.796;2024-01-07T10:27:03;3.13;;;2.27;;
75818;SDS011;64453;51.944;9.796;2024-01-07T10:29:31;2.40;;;2.00;;
75818;SDS011;64453;51.944;9.796;2024-01-07T10:31:58;1.87;;;1.77;;
75818;SDS011;64453;51.944;9.796;2024-01-07T10:34:28;1.80;;;1.70;;
75818;SDS011;64453;51.944;9.796;2024-01-07T10:36:56;1.83;;;1.73;;
75818;SDS011;64453;51.944;9.796;2024-01-07T10:39:25;2.00;;;1.90;;
75818;SDS011;64453;51.944;9.796;2024-01-07T10:41:54;2.57;;;2.20;;
75818;SDS011;64453;51.944;9.796;2024-01-07T10:44:24;5.50;;;1.70;;
75818;SDS011;64453;51.944;9.796;2024-01-07T10:46:52;2.93;;;1.90;;
75818;SDS011;64453;51.944;9.796;2024-01-07T10:49:21;1.90;;;1.67;;
75818;SDS011;64453;51.944;9.796;2024-01-07T10:51:51;2.10;;;2.00;;
75818;SDS011;64453;51.944;9.796;2024-01-07T10:54:31;3.67;;;1.80;;
75818;SDS011;64453;51.944;9.796;2024-01-07T10:56:59;2.27;;;2.07;;
75818;SDS011;64453;51.944;9.796;2024-01-07T10:59:31;2.23;;;2.00;;
75818;SDS011;64453;51.944;9.796;2024-01-07T11:02:00;2.23;;;2.00;;
75818;SDS011;64453;51.944;9.796;2024-01-07T11:04:29;2.03;;;1.60;;
75818;SDS011;64453;51.944;9.796;2024-01-07T11:07:05;2.10;;;1.90;;
75818;SDS011;64453;51.944;9.796;2024-01-07T11:09:46;1.93;;;1.83;;
75818;SDS011;64453;51.944;9.796;2024-01-07T11:12:21;2.50;;;2.23;;
75818;SDS011;64453;51.944;9.796;2024-01-07T11:14:49;2.70;;;2.50;;
75818;SDS011;64453;51.944;9.796;2024-01-07T11:20:13;2.57;;;2.40;;
75818;SDS011;64453;51.944;9.796;2024-01-07T11:22:45;2.23;;;2.00;;
75818;SDS011;64453;51.944;9.796;2024-01-07T11:25:29;2.27;;;2.17;;
75818;SDS011;64453;51.944;9.796;2024-01-07T11:27:58;2.70;;;2.10;;
75818;SDS011;64453;51.944;9.796;2024-01-07T11:30:27;4.73;;;2.93;;
75818;SDS011;64453;51.944;9.796;2024-01-07T11:32:57;3.40;;;3.10;;
75818;SDS011;64453;51.944;9.796;2024-01-07T11:38:28;2.80;;;2.60;;
75818;SDS011;64453;51.944;9.796;2024-01-07T11:40:57;3.13;;;2.63;;
75818;SDS011;64453;51.944;9.796;2024-01-07T11:43:25;2.50;;;2.13;;
75818;SDS011;64453;51.944;9.796;2024-01-07T11:45:52;3.70;;;2.60;;
75818;SDS011;64453;51.944;9.796;2024-01-07T11:48:19;2.43;;;2.23;;
75818;SDS011;64453;51.944;9.796;2024-01-07T11:50:46;3.10;;;2.87;;
75818;SDS011;64453;51.944;9.796;2024-01-07T11:53:13;2.93;;;2.10;;
75818;SDS011;64453;51.944;9.796;2024-01-07T11:55:40;2.50;;;2.30;;
75818;SDS011;64453;51.944;9.796;2024-01-07T11:58:09;2.50;;;2.30;;
75818;SDS011;64453;51.944;9.796;2024-01-07T12:00:36;3.50;;;3.20;;
75818;SDS011;64453;51.944;9.796;2024-01-07T12:03:03;5.30;;;4.30;;
75818;SDS011;64453;51.944;9.796;2024-01-07T12:05:30;3.17;;;2.97;;
75818;SDS011;64453;51.944;9.796;2024-01-07T12:07:57;2.50;;;2.40;;
75818;SDS011;64453;51.944;9.796;2024-01-07T12:10:26;2.30;;;2.10;;
75818;SDS011;64453;51.944;9.796;2024-01-07T12:12:53;2.30;;;2.10;;
75818;SDS011;64453;51.944;9.796;2024-01-07T12:15:22;2.40;;;2.13;;
75818;SDS011;64453;51.944;9.796;2024-01-07T12:17:56;3.20;;;2.20;;
75818;SDS011;64453;51.944;9.796;2024-01-07T12:20:24;2.17;;;2.00;;
75818;SDS011;64453;51.944;9.796;2024-01-07T12:22:51;3.97;;;2.63;;
75818;SDS011;64453;51.944;9.796;2024-01-07T12:25:21;3.83;;;3.07;;
75818;SDS011;64453;51.944;9.796;2024-01-07T12:27:49;2.90;;;2.63;;
75818;SDS011;64453;51.944;9.796;2024-01-07T12:30:18;2.73;;;2.53;;
75818;SDS011;64453;51.944;9.796;2024-01-07T12:32:47;2.93;;;2.30;;
75818;SDS011;64453;51.944;9.796;2024-01-07T12:35:17;5.83;;;2.70;;
75818;SDS011;64453;51.944;9.796;2024-01-07T12:37:44;2.90;;;2.70;;
75818;SDS011;64453;51.944;9.796;2024-01-07T12:40:11;4.10;;;3.30;;
75818;SDS011;64453;51.944;9.796;2024-01-07T12:42:38;5.50;;;3.70;;
75818;SDS011;64453;51.944;9.796;2024-01-07T12:45:09;3.60;;;3.17;;
75818;SDS011;64453;51.944;9.796;2024-01-07T12:47:39;4.20;;;3.07;;
75818;SDS011;64453;51.944;9.796;2024-01-07T12:50:09;5.73;;;4.17;;
75818;SDS011;64453;51.944;9.796;2024-01-07T12:52:36;6.50;;;4.27;;
75818;SDS011;64453;51.944;9.796;2024-01-07T12:55:04;3.70;;;2.90;;
75818;SDS011;64453;51.944;9.796;2024-01-07T12:57:32;3.10;;;2.87;;
75818;SDS011;64453;51.944;9.796;2024-01-07T12:59:59;3.83;;;2.90;;
75818;SDS011;64453;51.944;9.796;2024-01-07T13:02:26;3.00;;;2.80;;
75818;SDS011;64453;51.944;9.796;2024-01-07T13:04:53;2.67;;;2.47;;
75818;SDS011;64453;51.944;9.796;2024-01-07T13:07:21;3.13;;;2.53;;
75818;SDS011;64453;51.944;9.796;2024-01-07T13:09:49;2.53;;;2.33;;
75818;SDS011;64453;51.944;9.796;2024-01-07T13:12:16;2.70;;;2.50;;
75818;SDS011;64453;51.944;9.796;2024-01-07T13:14:43;5.03;;;2.37;;
75818;SDS011;64453;51.944;9.796;2024-01-07T13:17:12;2.33;;;2.20;;
75818;SDS011;64453;51.944;9.796;2024-01-07T13:19:39;3.07;;;2.27;;
75818;SDS011;64453;51.944;9.796;2024-01-07T13:22:07;3.53;;;3.03;;
75818;SDS011;64453;51.944;9.796;2024-01-07T13:24:35;2.80;;;2.23;;
75818;SDS011;64453;51.944;9.796;2024-01-07T13:27:03;2.97;;;2.67;;
75818;SDS011;64453;51.944;9.796;2024-01-07T13:29:30;3.50;;;3.20;;
75818;SDS011;64453;51.944;9.796;2024-01-07T13:31:58;1.83;;;1.73;;
75818;SDS011;64453;51.944;9.796;2024-01-07T13:34:24;2.50;;;2.30;;
75818;SDS011;64453;51.944;9.796;2024-01-07T13:36:52;2.37;;;2.27;;
75818;SDS011;64453;51.944;9.796;2024-01-07T13:39:19;2.97;;;2.77;;
75818;SDS011;64453;51.944;9.796;2024-01-07T13:41:47;2.20;;;2.10;;
75818;SDS011;64453;51.944;9.796;2024-01-07T13:44:14;2.50;;;2.23;;
75818;SDS011;64453;51.944;9.796;2024-01-07T13:46:43;2.20;;;2.00;;
75818;SDS011;64453;51.944;9.796;2024-01-07T13:49:11;3.40;;;2.27;;
75818;SDS011;64453;51.944;9.796;2024-01-07T13:51:39;2.20;;;2.00;;
75818;SDS011;64453;51.944;9.796;2024-01-07T13:54:06;4.03;;;2.30;;
75818;SDS011;64453;51.944;9.796;2024-01-07T13:56:35;2.80;;;2.43;;
75818;SDS011;64453;51.944;9.796;2024-01-07T13:59:04;4.53;;;2.90;;
75818;SDS011;64453;51.944;9.796;2024-01-07T14:01:31;3.13;;;2.60;;
75818;SDS011;64453;51.944;9.796;2024-01-07T14:03:57;2.90;;;2.50;;
75818;SDS011;64453;51.944;9.796;2024-01-07T14:06:24;4.93;;;2.40;;
75818;SDS011;64453;51.944;9.796;2024-01-07T14:08:51;3.30;;;2.73;;
75818;SDS011;64453;51.944;9.796;2024-01-07T14:11:18;2.03;;;1.93;;
75818;SDS011;64453;51.944;9.796;2024-01-07T14:13:46;5.60;;;5.10;;
75818;SDS011;64453;51.944;9.796;2024-01-07T14:16:14;7.50;;;6.80;;
75818;SDS011;64453;51.944;9.796;2024-01-07T14:18:41;3.03;;;2.17;;
75818;SDS011;64453;51.944;9.796;2024-01-07T14:21:08;1.97;;;1.87;;
75818;SDS011;64453;51.944;9.796;2024-01-07T14:23:35;2.57;;;2.10;;
75818;SDS011;64453;51.944;9.796;2024-01-07T14:26:02;2.37;;;2.17;;
75818;SDS011;64453;51.944;9.796;2024-01-07T14:28:30;2.20;;;1.80;;
75818;SDS011;64453;51.944;9.796;2024-01-07T14:30:56;2.90;;;2.60;;
75818;SDS011;64453;51.944;9.796;2024-01-07T14:33:25;2.00;;;1.90;;
75818;SDS011;64453;51.944;9.796;2024-01-07T14:35:53;2.10;;;1.90;;
75818;SDS011;64453;51.944;9.796;2024-01-07T14:38:19;3.53;;;2.00;;
75818;SDS011;64453;51.944;9.796;2024-01-07T14:40:47;2.13;;;1.97;;
75818;SDS011;64453;51.944;9.796;2024-01-07T14:43:17;2.63;;;2.43;;
75818;SDS011;64453;51.944;9.796;2024-01-07T14:45:44;2.20;;;2.00;;
75818;SDS011;64453;51.944;9.796;2024-01-07T14:48:11;4.57;;;2.30;;
75818;SDS011;64453;51.944;9.796;2024-01-07T14:50:40;1.60;;;1.50;;
75818;SDS011;64453;51.944;9.796;2024-01-07T14:53:10;1.73;;;1.63;;
75818;SDS011;64453;51.944;9.796;2024-01-07T14:55:37;2.40;;;1.80;;